sensor_id;sensor_type;location;lat;lon;timestamp;temperature;humidity
15013;DHT22;7603;49.432;11.418;2024-02-26T00:01:42;4.10;99.90
15013;DHT22;7603;49.432;11.418;2024-02-26T00:04:09;4.00;99.90
15013;DHT22;7603;49.432;11.418;2024-02-26T00:06:35;4.00;99.90
15013;DHT22;7603;49.432;11.418;2024-02-26T00:09:01;4.00;99.90
15013;DHT22;7603;49.432;11.418;2024-02-26T00:11:28;4.00;99.90
15013;DHT22;7603;49.432;11.418;2024-02-26T00:13:53;4.10;99.90
15013;DHT22;7603;49.432;11.418;2024-02-26T00:16:19;4.10;99.90
15013;DHT22;7603;49.432;11.418;2024-02-26T00:18:45;4.20;99.90
15013;DHT22;7603;49.432;11.418;2024-02-26T00:21:11;4.20;99.90
15013;DHT22;7603;49.432;11.418;2024-02-26T00:23:37;4.10;99.90
15013;DHT22;7603;49.432;11.418;2024-02-26T00:26:02;4.10;99.90
15013;DHT22;7603;49.432;11.418;2024-02-26T00:28:29;4.00;99.90
15013;DHT22;7603;49.432;11.418;2024-02-26T00:30:54;4.00;99.90
15013;DHT22;7603;49.432;11.418;2024-02-26T00:33:22;3.90;99.90
15013;DHT22;7603;49.432;11.418;2024-02-26T00:35:48;3.80;99.90
15013;DHT22;7603;49.432;11.418;2024-02-26T00:38:14;3.70;99.90
15013;DHT22;7603;49.432;11.418;2024-02-26T00:40:40;3.60;99.90
15013;DHT22;7603;49.432;11.418;2024-02-26T00:43:06;3.50;99.90
15013;DHT22;7603;49.432;11.418;2024-02-26T00:45:32;3.50;99.90
15013;DHT22;7603;49.432;11.418;2024-02-26T00:47:58;3.50;99.90
15013;DHT22;7603;49.432;11.418;2024-02-26T00:50:26;3.50;99.90
15013;DHT22;7603;49.432;11.418;2024-02-26T00:52:52;3.40;99.90
15013;DHT22;7603;49.432;11.418;2024-02-26T00:55:18;3.40;99.90
15013;DHT22;7603;49.432;11.418;2024-02-26T00:57:44;3.40;99.90
15013;DHT22;7603;49.432;11.418;2024-02-26T01:00:10;3.30;99.90
15013;DHT22;7603;49.432;11.418;2024-02-26T01:02:35;3.20;99.90
15013;DHT22;7603;49.432;11.418;2024-02-26T01:05:01;3.10;99.90
15013;DHT22;7603;49.432;11.418;2024-02-26T01:07:27;3.10;99.90
15013;DHT22;7603;49.432;11.418;2024-02-26T01:09:53;3.00;99.90
15013;DHT22;7603;49.432;11.418;2024-02-26T01:12:18;3.00;99.90
15013;DHT22;7603;49.432;11.418;2024-02-26T01:14:44;3.00;99.90
15013;DHT22;7603;49.432;11.418;2024-02-26T01:17:10;3.00;99.90
15013;DHT22;7603;49.432;11.418;2024-02-26T01:19:35;3.00;99.90
15013;DHT22;7603;49.432;11.418;2024-02-26T01:22:01;3.00;99.90
15013;DHT22;7603;49.432;11.418;2024-02-26T01:24:27;3.00;99.90
15013;DHT22;7603;49.432;11.418;2024-02-26T01:26:53;3.00;99.90
15013;DHT22;7603;49.432;11.418;2024-02-26T01:29:18;3.00;99.90
15013;DHT22;7603;49.432;11.418;2024-02-26T01:31:44;3.00;99.90
15013;DHT22;7603;49.432;11.418;2024-02-26T01:34:10;3.00;99.90
15013;DHT22;7603;49.432;11.418;2024-02-26T01:36:36;3.00;99.90
15013;DHT22;7603;49.432;11.418;2024-02-26T01:39:01;2.90;99.90
15013;DHT22;7603;49.432;11.418;2024-02-26T01:41:28;2.90;99.90
15013;DHT22;7603;49.432;11.418;2024-02-26T01:43:54;3.00;99.90
15013;DHT22;7603;49.432;11.418;2024-02-26T01:46:20;2.90;99.90
15013;DHT22;7603;49.432;11.418;2024-02-26T01:48:46;2.90;99.90
15013;DHT22;7603;49.432;11.418;2024-02-26T01:51:14;3.00;99.90
15013;DHT22;7603;49.432;11.418;2024-02-26T01:53:41;3.00;99.90
15013;DHT22;7603;49.432;11.418;2024-02-26T01:56:07;2.90;99.90
15013;DHT22;7603;49.432;11.418;2024-02-26T01:58:34;2.90;99.90
15013;DHT22;7603;49.432;11.418;2024-02-26T02:01:01;2.90;99.90
15013;DHT22;7603;49.432;11.418;2024-02-26T02:03:28;2.90;99.90
15013;DHT22;7603;49.432;11.418;2024-02-26T02:05:54;2.90;99.90
15013;DHT22;7603;49.432;11.418;2024-02-26T02:08:22;2.90;99.90
15013;DHT22;7603;49.432;11.418;2024-02-26T02:10:49;2.90;99.90
15013;DHT22;7603;49.432;11.418;2024-02-26T02:13:14;2.90;99.90
15013;DHT22;7603;49.432;11.418;2024-02-26T02:15:40;3.00;99.90
15013;DHT22;7603;49.432;11.418;2024-02-26T02:18:06;3.10;99.90
15013;DHT22;7603;49.432;11.418;2024-02-26T02:20:35;3.20;99.90
15013;DHT22;7603;49.432;11.418;2024-02-26T02:23:01;3.20;99.90
15013;DHT22;7603;49.432;11.418;2024-02-26T02:25:27;3.30;99.90
15013;DHT22;7603;49.432;11.418;2024-02-26T02:27:54;3.30;99.90
15013;DHT22;7603;49.432;11.418;2024-02-26T02:30:28;3.40;99.90
15013;DHT22;7603;49.432;11.418;2024-02-26T02:32:55;3.40;99.90
15013;DHT22;7603;49.432;11.418;2024-02-26T02:35:22;3.40;99.90
15013;DHT22;7603;49.432;11.418;2024-02-26T02:37:49;3.50;99.90
15013;DHT22;7603;49.432;11.418;2024-02-26T02:40:15;3.50;99.90
15013;DHT22;7603;49.432;11.418;2024-02-26T02:42:41;3.50;99.90
15013;DHT22;7603;49.432;11.418;2024-02-26T02:45:07;3.50;99.90
15013;DHT22;7603;49.432;11.418;2024-02-26T02:47:36;3.50;99.90
15013;DHT22;7603;49.432;11.418;2024-02-26T02:50:02;3.60;99.90
15013;DHT22;7603;49.432;11.418;2024-02-26T02:52:28;3.60;99.90
15013;DHT22;7603;49.432;11.418;2024-02-26T02:54:54;3.70;99.90
15013;DHT22;7603;49.432;11.418;2024-02-26T02:57:19;3.80;99.90
15013;DHT22;7603;49.432;11.418;2024-02-26T02:59:45;3.80;99.90
15013;DHT22;7603;49.432;11.418;2024-02-26T03:02:11;3.80;99.90
15013;DHT22;7603;49.432;11.418;2024-02-26T03:04:37;3.90;99.90
15013;DHT22;7603;49.432;11.418;2024-02-26T03:07:02;3.90;99.90
15013;DHT22;7603;49.432;11.418;2024-02-26T03:09:28;3.90;99.90
15013;DHT22;7603;49.432;11.418;2024-02-26T03:11:54;4.00;99.90
15013;DHT22;7603;49.432;11.418;2024-02-26T03:14:19;4.00;99.90
15013;DHT22;7603;49.432;11.418;2024-02-26T03:16:45;4.00;99.90
15013;DHT22;7603;49.432;11.418;2024-02-26T03:19:11;4.00;99.90
15013;DHT22;7603;49.432;11.418;2024-02-26T03:21:39;4.00;99.90
15013;DHT22;7603;49.432;11.418;2024-02-26T03:24:05;4.10;99.90
15013;DHT22;7603;49.432;11.418;2024-02-26T03:26:31;4.10;99.90
15013;DHT22;7603;49.432;11.418;2024-02-26T03:28:57;4.10;99.90
15013;DHT22;7603;49.432;11.418;2024-02-26T03:31:22;4.10;99.90
15013;DHT22;7603;49.432;11.418;2024-02-26T03:33:48;4.10;99.90
15013;DHT22;7603;49.432;11.418;2024-02-26T03:36:13;4.10;99.90
15013;DHT22;7603;49.432;11.418;2024-02-26T03:38:39;4.10;99.90
15013;DHT22;7603;49.432;11.418;2024-02-26T03:41:05;4.10;99.90
15013;DHT22;7603;49.432;11.418;2024-02-26T03:43:31;4.00;99.90
15013;DHT22;7603;49.432;11.418;2024-02-26T03:45:57;4.10;99.90
15013;DHT22;7603;49.432;11.418;2024-02-26T03:48:23;4.10;99.90
15013;DHT22;7603;49.432;11.418;2024-02-26T03:50:48;4.10;99.90
15013;DHT22;7603;49.432;11.418;2024-02-26T03:53:14;4.10;99.90
15013;DHT22;7603;49.432;11.418;2024-02-26T03:55:39;4.20;99.90
15013;DHT22;7603;49.432;11.418;2024-02-26T03:58:07;4.20;99.90
15013;DHT22;7603;49.432;11.418;2024-02-26T04:00:32;4.20;99.90
15013;DHT22;7603;49.432;11.418;2024-02-26T04:02:58;4.20;99.90
15013;DHT22;7603;49.432;11.418;2024-02-26T04:05:24;4.20;99.90
15013;DHT22;7603;49.432;11.418;2024-02-26T04:07:49;4.20;99.90
15013;DHT22;7603;49.432;11.418;2024-02-26T04:10:15;4.10;99.90
15013;DHT22;7603;49.432;11.418;2024-02-26T04:12:41;4.10;99.90
15013;DHT22;7603;49.432;11.418;2024-02-26T04:15:08;4.00;99.90
15013;DHT22;7603;49.432;11.418;2024-02-26T04:17:34;4.00;99.90
15013;DHT22;7603;49.432;11.418;2024-02-26T04:20:00;3.90;99.90
15013;DHT22;7603;49.432;11.418;2024-02-26T04:22:26;3.80;99.90
15013;DHT22;7603;49.432;11.418;2024-02-26T04:24:52;3.80;99.90
15013;DHT22;7603;49.432;11.418;2024-02-26T04:27:17;3.80;99.90
15013;DHT22;7603;49.432;11.418;2024-02-26T04:29:43;3.80;99.90
15013;DHT22;7603;49.432;11.418;2024-02-26T04:32:08;3.60;99.90
15013;DHT22;7603;49.432;11.418;2024-02-26T04:34:34;3.60;99.90
15013;DHT22;7603;49.432;11.418;2024-02-26T04:37:00;3.60;99.90
15013;DHT22;7603;49.432;11.418;2024-02-26T04:39:26;3.50;99.90
15013;DHT22;7603;49.432;11.418;2024-02-26T04:41:51;3.50;99.90
15013;DHT22;7603;49.432;11.418;2024-02-26T04:44:17;3.50;99.90
15013;DHT22;7603;49.432;11.418;2024-02-26T04:46:42;3.60;99.90
15013;DHT22;7603;49.432;11.418;2024-02-26T04:49:09;3.60;99.90
15013;DHT22;7603;49.432;11.418;2024-02-26T04:51:34;3.60;99.90
15013;DHT22;7603;49.432;11.418;2024-02-26T04:54:00;3.70;99.90
15013;DHT22;7603;49.432;11.418;2024-02-26T04:56:26;3.70;99.90
15013;DHT22;7603;49.432;11.418;2024-02-26T04:58:51;3.80;99.90
15013;DHT22;7603;49.432;11.418;2024-02-26T05:01:17;3.80;99.90
15013;DHT22;7603;49.432;11.418;2024-02-26T05:03:44;3.80;99.90
15013;DHT22;7603;49.432;11.418;2024-02-26T05:06:09;3.80;99.90
15013;DHT22;7603;49.432;11.418;2024-02-26T05:08:35;3.90;99.90
15013;DHT22;7603;49.432;11.418;2024-02-26T05:11:04;3.90;99.90
15013;DHT22;7603;49.432;11.418;2024-02-26T05:13:30;4.00;99.90
15013;DHT22;7603;49.432;11.418;2024-02-26T05:15:56;4.00;99.90
15013;DHT22;7603;49.432;11.418;2024-02-26T05:18:24;4.00;99.90
15013;DHT22;7603;49.432;11.418;2024-02-26T05:20:50;4.10;99.90
15013;DHT22;7603;49.432;11.418;2024-02-26T05:23:16;4.00;99.90
15013;DHT22;7603;49.432;11.418;2024-02-26T05:25:41;4.10;99.90
15013;DHT22;7603;49.432;11.418;2024-02-26T05:28:07;4.10;99.90
15013;DHT22;7603;49.432;11.418;2024-02-26T05:30:33;4.00;99.90
15013;DHT22;7603;49.432;11.418;2024-02-26T05:32:58;4.10;99.90
15013;DHT22;7603;49.432;11.418;2024-02-26T05:35:27;4.10;99.90
15013;DHT22;7603;49.432;11.418;2024-02-26T05:37:53;4.10;99.90
15013;DHT22;7603;49.432;11.418;2024-02-26T05:40:19;4.10;99.90
15013;DHT22;7603;49.432;11.418;2024-02-26T05:42:45;4.00;99.90
15013;DHT22;7603;49.432;11.418;2024-02-26T05:45:11;4.00;99.90
15013;DHT22;7603;49.432;11.418;2024-02-26T05:47:36;3.90;99.90
15013;DHT22;7603;49.432;11.418;2024-02-26T05:50:09;3.80;99.90
15013;DHT22;7603;49.432;11.418;2024-02-26T05:52:36;3.80;99.90
15013;DHT22;7603;49.432;11.418;2024-02-26T05:55:03;3.80;99.90
15013;DHT22;7603;49.432;11.418;2024-02-26T05:57:28;3.80;99.90
15013;DHT22;7603;49.432;11.418;2024-02-26T05:59:54;3.80;99.90
15013;DHT22;7603;49.432;11.418;2024-02-26T06:02:20;3.80;99.90
15013;DHT22;7603;49.432;11.418;2024-02-26T06:04:46;3.90;99.90
15013;DHT22;7603;49.432;11.418;2024-02-26T06:07:12;3.80;99.90
15013;DHT22;7603;49.432;11.418;2024-02-26T06:09:38;3.80;99.90
15013;DHT22;7603;49.432;11.418;2024-02-26T06:12:05;3.90;99.90
15013;DHT22;7603;49.432;11.418;2024-02-26T06:14:30;3.90;99.90
15013;DHT22;7603;49.432;11.418;2024-02-26T06:16:56;3.90;99.90
15013;DHT22;7603;49.432;11.418;2024-02-26T06:19:22;4.00;99.90
15013;DHT22;7603;49.432;11.418;2024-02-26T06:21:47;4.00;99.90
15013;DHT22;7603;49.432;11.418;2024-02-26T06:24:13;4.00;99.90
15013;DHT22;7603;49.432;11.418;2024-02-26T06:26:38;4.10;99.90
15013;DHT22;7603;49.432;11.418;2024-02-26T06:29:04;4.20;99.90
15013;DHT22;7603;49.432;11.418;2024-02-26T06:31:30;4.20;99.90
15013;DHT22;7603;49.432;11.418;2024-02-26T06:33:55;4.30;99.90
15013;DHT22;7603;49.432;11.418;2024-02-26T06:36:22;4.30;99.90
15013;DHT22;7603;49.432;11.418;2024-02-26T06:38:47;4.40;99.90
15013;DHT22;7603;49.432;11.418;2024-02-26T06:41:14;4.40;99.90
15013;DHT22;7603;49.432;11.418;2024-02-26T06:43:40;4.50;99.90
15013;DHT22;7603;49.432;11.418;2024-02-26T06:46:06;4.60;99.90
15013;DHT22;7603;49.432;11.418;2024-02-26T06:48:32;4.60;99.90
15013;DHT22;7603;49.432;11.418;2024-02-26T06:50:58;4.70;99.90
15013;DHT22;7603;49.432;11.418;2024-02-26T06:53:23;4.70;99.90
15013;DHT22;7603;49.432;11.418;2024-02-26T06:55:49;4.80;99.90
15013;DHT22;7603;49.432;11.418;2024-02-26T06:58:16;4.90;99.90
15013;DHT22;7603;49.432;11.418;2024-02-26T07:00:41;4.90;99.90
15013;DHT22;7603;49.432;11.418;2024-02-26T07:03:07;5.00;99.90
15013;DHT22;7603;49.432;11.418;2024-02-26T07:05:33;5.00;99.90
15013;DHT22;7603;49.432;11.418;2024-02-26T07:07:59;5.00;99.90
15013;DHT22;7603;49.432;11.418;2024-02-26T07:10:24;5.10;99.90
15013;DHT22;7603;49.432;11.418;2024-02-26T07:12:50;5.10;99.90
15013;DHT22;7603;49.432;11.418;2024-02-26T07:15:15;5.20;99.90
15013;DHT22;7603;49.432;11.418;2024-02-26T07:17:41;5.20;99.90
15013;DHT22;7603;49.432;11.418;2024-02-26T07:20:08;5.30;99.90
15013;DHT22;7603;49.432;11.418;2024-02-26T07:22:34;5.40;99.90
15013;DHT22;7603;49.432;11.418;2024-02-26T07:24:59;5.50;99.90
15013;DHT22;7603;49.432;11.418;2024-02-26T07:27:25;5.60;99.90
15013;DHT22;7603;49.432;11.418;2024-02-26T07:29:54;5.70;99.90
15013;DHT22;7603;49.432;11.418;2024-02-26T07:32:20;5.70;99.90
15013;DHT22;7603;49.432;11.418;2024-02-26T07:34:45;5.80;99.90
15013;DHT22;7603;49.432;11.418;2024-02-26T07:37:11;5.90;99.90
15013;DHT22;7603;49.432;11.418;2024-02-26T07:39:37;6.00;99.90
15013;DHT22;7603;49.432;11.418;2024-02-26T07:42:03;6.10;99.90
15013;DHT22;7603;49.432;11.418;2024-02-26T07:44:29;6.20;99.90
15013;DHT22;7603;49.432;11.418;2024-02-26T07:46:55;6.20;99.90
15013;DHT22;7603;49.432;11.418;2024-02-26T07:49:20;6.30;99.90
15013;DHT22;7603;49.432;11.418;2024-02-26T07:51:46;6.30;99.90
15013;DHT22;7603;49.432;11.418;2024-02-26T07:54:11;6.30;99.90
15013;DHT22;7603;49.432;11.418;2024-02-26T07:56:37;6.30;99.90
15013;DHT22;7603;49.432;11.418;2024-02-26T07:59:03;6.40;99.90
15013;DHT22;7603;49.432;11.418;2024-02-26T08:01:28;6.40;99.90
15013;DHT22;7603;49.432;11.418;2024-02-26T08:03:54;6.40;99.90
15013;DHT22;7603;49.432;11.418;2024-02-26T08:06:21;6.40;99.90
15013;DHT22;7603;49.432;11.418;2024-02-26T08:08:46;6.40;99.90
15013;DHT22;7603;49.432;11.418;2024-02-26T08:11:14;6.50;99.90
15013;DHT22;7603;49.432;11.418;2024-02-26T08:13:40;6.50;99.90
15013;DHT22;7603;49.432;11.418;2024-02-26T08:16:06;6.50;99.90
15013;DHT22;7603;49.432;11.418;2024-02-26T08:18:32;6.60;99.90
15013;DHT22;7603;49.432;11.418;2024-02-26T08:20:57;6.70;99.90
15013;DHT22;7603;49.432;11.418;2024-02-26T08:23:23;6.90;99.90
15013;DHT22;7603;49.432;11.418;2024-02-26T08:25:49;7.20;99.90
15013;DHT22;7603;49.432;11.418;2024-02-26T08:28:15;7.40;99.90
15013;DHT22;7603;49.432;11.418;2024-02-26T08:30:43;7.60;99.90
15013;DHT22;7603;49.432;11.418;2024-02-26T08:33:09;7.80;99.90
15013;DHT22;7603;49.432;11.418;2024-02-26T08:35:35;7.90;99.90
15013;DHT22;7603;49.432;11.418;2024-02-26T08:38:01;8.00;99.90
15013;DHT22;7603;49.432;11.418;2024-02-26T08:40:27;8.10;99.90
15013;DHT22;7603;49.432;11.418;2024-02-26T08:42:53;8.20;99.90
15013;DHT22;7603;49.432;11.418;2024-02-26T08:45:18;8.30;99.90
15013;DHT22;7603;49.432;11.418;2024-02-26T08:47:45;8.30;99.90
15013;DHT22;7603;49.432;11.418;2024-02-26T08:50:11;8.30;99.90
15013;DHT22;7603;49.432;11.418;2024-02-26T08:52:38;8.30;99.90
15013;DHT22;7603;49.432;11.418;2024-02-26T08:55:04;8.30;99.90
15013;DHT22;7603;49.432;11.418;2024-02-26T08:57:31;8.30;99.90
15013;DHT22;7603;49.432;11.418;2024-02-26T08:59:59;8.30;99.90
15013;DHT22;7603;49.432;11.418;2024-02-26T09:02:25;8.40;99.90
15013;DHT22;7603;49.432;11.418;2024-02-26T09:04:51;8.40;99.90
15013;DHT22;7603;49.432;11.418;2024-02-26T09:07:19;8.50;99.90
15013;DHT22;7603;49.432;11.418;2024-02-26T09:09:45;8.60;99.90
15013;DHT22;7603;49.432;11.418;2024-02-26T09:12:11;8.70;99.90
15013;DHT22;7603;49.432;11.418;2024-02-26T09:14:36;8.80;99.60
15013;DHT22;7603;49.432;11.418;2024-02-26T09:17:02;9.00;99.10
15013;DHT22;7603;49.432;11.418;2024-02-26T09:19:28;9.10;99.00
15013;DHT22;7603;49.432;11.418;2024-02-26T09:21:54;9.30;98.40
15013;DHT22;7603;49.432;11.418;2024-02-26T09:24:23;9.50;97.90
15013;DHT22;7603;49.432;11.418;2024-02-26T09:26:49;9.80;97.60
15013;DHT22;7603;49.432;11.418;2024-02-26T09:29:15;10.10;96.40
15013;DHT22;7603;49.432;11.418;2024-02-26T09:31:40;10.40;95.60
15013;DHT22;7603;49.432;11.418;2024-02-26T09:34:07;10.60;95.40
15013;DHT22;7603;49.432;11.418;2024-02-26T09:36:33;10.80;94.10
15013;DHT22;7603;49.432;11.418;2024-02-26T09:38:59;10.90;93.10
15013;DHT22;7603;49.432;11.418;2024-02-26T09:41:28;11.00;93.00
15013;DHT22;7603;49.432;11.418;2024-02-26T09:43:57;11.10;92.40
15013;DHT22;7603;49.432;11.418;2024-02-26T09:46:23;11.10;91.70
15013;DHT22;7603;49.432;11.418;2024-02-26T09:48:50;11.30;91.80
15013;DHT22;7603;49.432;11.418;2024-02-26T09:51:16;11.70;91.20
15013;DHT22;7603;49.432;11.418;2024-02-26T09:53:44;12.10;90.80
15013;DHT22;7603;49.432;11.418;2024-02-26T09:56:12;12.50;90.40
15013;DHT22;7603;49.432;11.418;2024-02-26T09:58:41;12.90;88.60
15013;DHT22;7603;49.432;11.418;2024-02-26T10:01:12;13.40;86.70
15013;DHT22;7603;49.432;11.418;2024-02-26T10:03:40;13.90;84.80
15013;DHT22;7603;49.432;11.418;2024-02-26T10:06:08;14.60;82.10
15013;DHT22;7603;49.432;11.418;2024-02-26T10:08:35;15.20;78.30
15013;DHT22;7603;49.432;11.418;2024-02-26T10:11:00;15.90;75.40
15013;DHT22;7603;49.432;11.418;2024-02-26T10:13:26;16.70;70.60
15013;DHT22;7603;49.432;11.418;2024-02-26T10:15:52;17.30;67.00
15013;DHT22;7603;49.432;11.418;2024-02-26T10:18:18;17.70;64.40
15013;DHT22;7603;49.432;11.418;2024-02-26T10:20:59;17.80;60.90
15013;DHT22;7603;49.432;11.418;2024-02-26T10:23:26;17.60;57.60
15013;DHT22;7603;49.432;11.418;2024-02-26T10:25:55;17.30;58.70
15013;DHT22;7603;49.432;11.418;2024-02-26T10:28:22;17.10;58.30
15013;DHT22;7603;49.432;11.418;2024-02-26T10:30:48;16.90;57.70
15013;DHT22;7603;49.432;11.418;2024-02-26T10:33:13;16.80;57.70
15013;DHT22;7603;49.432;11.418;2024-02-26T10:35:45;16.70;57.80
15013;DHT22;7603;49.432;11.418;2024-02-26T10:38:10;16.90;57.70
15013;DHT22;7603;49.432;11.418;2024-02-26T10:40:37;16.80;58.10
15013;DHT22;7603;49.432;11.418;2024-02-26T10:43:02;16.70;58.90
15013;DHT22;7603;49.432;11.418;2024-02-26T10:45:28;16.60;58.80
15013;DHT22;7603;49.432;11.418;2024-02-26T10:47:54;16.70;58.10
15013;DHT22;7603;49.432;11.418;2024-02-26T10:50:20;16.80;57.90
15013;DHT22;7603;49.432;11.418;2024-02-26T10:52:45;16.90;57.50
15013;DHT22;7603;49.432;11.418;2024-02-26T10:55:17;16.70;56.50
15013;DHT22;7603;49.432;11.418;2024-02-26T10:57:45;16.50;56.20
15013;DHT22;7603;49.432;11.418;2024-02-26T11:00:14;16.40;56.70
15013;DHT22;7603;49.432;11.418;2024-02-26T11:02:41;16.40;56.90
15013;DHT22;7603;49.432;11.418;2024-02-26T11:05:08;16.50;57.00
15013;DHT22;7603;49.432;11.418;2024-02-26T11:07:36;16.60;56.70
15013;DHT22;7603;49.432;11.418;2024-02-26T11:10:06;16.90;56.80
15013;DHT22;7603;49.432;11.418;2024-02-26T11:12:33;17.10;55.50
15013;DHT22;7603;49.432;11.418;2024-02-26T11:15:02;17.20;55.20
15013;DHT22;7603;49.432;11.418;2024-02-26T11:17:29;17.30;55.00
15013;DHT22;7603;49.432;11.418;2024-02-26T11:19:58;17.40;53.70
15013;DHT22;7603;49.432;11.418;2024-02-26T11:22:28;17.30;53.50
15013;DHT22;7603;49.432;11.418;2024-02-26T11:24:54;17.20;53.50
15013;DHT22;7603;49.432;11.418;2024-02-26T11:27:25;17.10;53.80
15013;DHT22;7603;49.432;11.418;2024-02-26T11:29:55;17.20;53.70
15013;DHT22;7603;49.432;11.418;2024-02-26T11:32:23;17.30;53.00
15013;DHT22;7603;49.432;11.418;2024-02-26T11:34:49;17.40;53.10
15013;DHT22;7603;49.432;11.418;2024-02-26T11:37:16;17.60;53.00
15013;DHT22;7603;49.432;11.418;2024-02-26T11:39:43;17.90;53.00
15013;DHT22;7603;49.432;11.418;2024-02-26T11:42:14;18.20;52.70
15013;DHT22;7603;49.432;11.418;2024-02-26T11:44:39;18.30;51.70
15013;DHT22;7603;49.432;11.418;2024-02-26T11:47:20;18.30;51.00
15013;DHT22;7603;49.432;11.418;2024-02-26T11:49:46;18.30;50.60
15013;DHT22;7603;49.432;11.418;2024-02-26T11:52:13;18.40;50.80
15013;DHT22;7603;49.432;11.418;2024-02-26T11:54:58;18.40;51.10
15013;DHT22;7603;49.432;11.418;2024-02-26T12:00:11;18.60;50.80
15013;DHT22;7603;49.432;11.418;2024-02-26T12:02:46;19.00;49.90
15013;DHT22;7603;49.432;11.418;2024-02-26T12:05:13;19.40;49.20
15013;DHT22;7603;49.432;11.418;2024-02-26T12:07:56;20.00;48.50
15013;DHT22;7603;49.432;11.418;2024-02-26T12:10:38;21.00;47.30
15013;DHT22;7603;49.432;11.418;2024-02-26T12:13:15;22.00;46.10
15013;DHT22;7603;49.432;11.418;2024-02-26T12:18:18;23.40;42.10
15013;DHT22;7603;49.432;11.418;2024-02-26T12:20:43;23.50;41.20
15013;DHT22;7603;49.432;11.418;2024-02-26T12:23:14;23.50;40.60
15013;DHT22;7603;49.432;11.418;2024-02-26T12:25:40;23.70;40.40
15013;DHT22;7603;49.432;11.418;2024-02-26T12:28:07;24.50;39.30
15013;DHT22;7603;49.432;11.418;2024-02-26T12:30:33;26.00;37.90
15013;DHT22;7603;49.432;11.418;2024-02-26T12:33:00;27.40;36.60
15013;DHT22;7603;49.432;11.418;2024-02-26T12:35:27;28.60;34.90
15013;DHT22;7603;49.432;11.418;2024-02-26T12:37:54;29.50;33.40
15013;DHT22;7603;49.432;11.418;2024-02-26T12:40:20;30.30;31.60
15013;DHT22;7603;49.432;11.418;2024-02-26T12:42:46;31.30;30.10
15013;DHT22;7603;49.432;11.418;2024-02-26T12:45:13;31.90;29.00
15013;DHT22;7603;49.432;11.418;2024-02-26T12:47:43;32.70;28.20
15013;DHT22;7603;49.432;11.418;2024-02-26T12:50:10;33.30;27.30
15013;DHT22;7603;49.432;11.418;2024-02-26T12:52:39;33.20;26.40
15013;DHT22;7603;49.432;11.418;2024-02-26T12:55:06;33.30;26.10
15013;DHT22;7603;49.432;11.418;2024-02-26T12:57:38;33.00;26.10
15013;DHT22;7603;49.432;11.418;2024-02-26T13:00:08;32.00;26.20
15013;DHT22;7603;49.432;11.418;2024-02-26T13:02:37;31.00;26.40
15013;DHT22;7603;49.432;11.418;2024-02-26T13:05:06;30.30;26.80
15013;DHT22;7603;49.432;11.418;2024-02-26T13:07:33;30.40;26.40
15013;DHT22;7603;49.432;11.418;2024-02-26T13:10:00;30.30;27.00
15013;DHT22;7603;49.432;11.418;2024-02-26T13:12:25;30.50;27.20
15013;DHT22;7603;49.432;11.418;2024-02-26T13:15:01;31.40;27.00
15013;DHT22;7603;49.432;11.418;2024-02-26T13:17:27;32.20;26.70
15013;DHT22;7603;49.432;11.418;2024-02-26T13:19:54;32.80;26.10
15013;DHT22;7603;49.432;11.418;2024-02-26T13:22:23;32.80;25.70
15013;DHT22;7603;49.432;11.418;2024-02-26T13:24:56;32.40;26.20
15013;DHT22;7603;49.432;11.418;2024-02-26T13:27:25;31.90;26.10
15013;DHT22;7603;49.432;11.418;2024-02-26T13:30:09;31.90;26.10
15013;DHT22;7603;49.432;11.418;2024-02-26T13:32:37;32.50;25.50
15013;DHT22;7603;49.432;11.418;2024-02-26T13:35:10;33.20;24.90
15013;DHT22;7603;49.432;11.418;2024-02-26T13:37:36;33.50;24.50
15013;DHT22;7603;49.432;11.418;2024-02-26T13:40:10;33.30;24.90
15013;DHT22;7603;49.432;11.418;2024-02-26T13:42:37;33.10;24.70
15013;DHT22;7603;49.432;11.418;2024-02-26T13:45:03;32.90;25.10
15013;DHT22;7603;49.432;11.418;2024-02-26T13:47:32;32.40;25.30
15013;DHT22;7603;49.432;11.418;2024-02-26T13:49:58;32.20;25.40
15013;DHT22;7603;49.432;11.418;2024-02-26T13:52:23;31.90;25.60
15013;DHT22;7603;49.432;11.418;2024-02-26T13:54:49;31.90;25.80
15013;DHT22;7603;49.432;11.418;2024-02-26T13:57:15;31.90;25.70
15013;DHT22;7603;49.432;11.418;2024-02-26T13:59:40;31.70;25.30
15013;DHT22;7603;49.432;11.418;2024-02-26T14:02:08;31.20;25.10
15013;DHT22;7603;49.432;11.418;2024-02-26T14:04:34;30.60;25.70
15013;DHT22;7603;49.432;11.418;2024-02-26T14:07:00;29.80;26.20
15013;DHT22;7603;49.432;11.418;2024-02-26T14:09:25;28.90;26.60
15013;DHT22;7603;49.432;11.418;2024-02-26T14:11:51;28.00;27.20
15013;DHT22;7603;49.432;11.418;2024-02-26T14:14:17;27.00;27.80
15013;DHT22;7603;49.432;11.418;2024-02-26T14:16:42;25.90;28.80
15013;DHT22;7603;49.432;11.418;2024-02-26T14:19:08;24.80;29.60
15013;DHT22;7603;49.432;11.418;2024-02-26T14:21:35;23.80;30.80
15013;DHT22;7603;49.432;11.418;2024-02-26T14:24:00;22.90;32.20
15013;DHT22;7603;49.432;11.418;2024-02-26T14:26:26;22.00;33.40
15013;DHT22;7603;49.432;11.418;2024-02-26T14:28:52;21.30;34.90
15013;DHT22;7603;49.432;11.418;2024-02-26T14:31:18;20.80;35.90
15013;DHT22;7603;49.432;11.418;2024-02-26T14:33:43;20.40;36.90
15013;DHT22;7603;49.432;11.418;2024-02-26T14:36:10;19.90;38.00
15013;DHT22;7603;49.432;11.418;2024-02-26T14:38:36;19.50;39.10
15013;DHT22;7603;49.432;11.418;2024-02-26T14:41:02;19.10;39.90
15013;DHT22;7603;49.432;11.418;2024-02-26T14:43:29;18.60;40.70
15013;DHT22;7603;49.432;11.418;2024-02-26T14:45:57;18.30;42.00
15013;DHT22;7603;49.432;11.418;2024-02-26T14:48:22;17.90;42.80
15013;DHT22;7603;49.432;11.418;2024-02-26T14:50:48;17.60;43.50
15013;DHT22;7603;49.432;11.418;2024-02-26T14:53:14;17.40;44.30
15013;DHT22;7603;49.432;11.418;2024-02-26T14:55:40;17.00;45.00
15013;DHT22;7603;49.432;11.418;2024-02-26T14:58:06;16.80;45.60
15013;DHT22;7603;49.432;11.418;2024-02-26T15:00:31;16.60;46.50
15013;DHT22;7603;49.432;11.418;2024-02-26T15:02:59;16.30;47.60
15013;DHT22;7603;49.432;11.418;2024-02-26T15:05:25;16.00;48.20
15013;DHT22;7603;49.432;11.418;2024-02-26T15:07:50;15.60;49.00
15013;DHT22;7603;49.432;11.418;2024-02-26T15:10:16;15.30;50.10
15013;DHT22;7603;49.432;11.418;2024-02-26T15:12:42;15.10;51.00
15013;DHT22;7603;49.432;11.418;2024-02-26T15:15:08;14.90;51.60
15013;DHT22;7603;49.432;11.418;2024-02-26T15:17:33;14.60;52.10
15013;DHT22;7603;49.432;11.418;2024-02-26T15:20:00;14.40;52.90
15013;DHT22;7603;49.432;11.418;2024-02-26T15:22:27;14.30;53.50
15013;DHT22;7603;49.432;11.418;2024-02-26T15:24:53;14.20;53.80
15013;DHT22;7603;49.432;11.418;2024-02-26T15:27:18;14.10;54.10
15013;DHT22;7603;49.432;11.418;2024-02-26T15:29:44;14.00;54.40
15013;DHT22;7603;49.432;11.418;2024-02-26T15:32:10;14.00;54.90
15013;DHT22;7603;49.432;11.418;2024-02-26T15:34:36;13.90;55.40
15013;DHT22;7603;49.432;11.418;2024-02-26T15:37:02;13.80;56.00
15013;DHT22;7603;49.432;11.418;2024-02-26T15:39:28;13.70;56.70
15013;DHT22;7603;49.432;11.418;2024-02-26T15:41:54;13.50;57.30